sensor_id;sensor_type;location;lat;lon;timestamp;pressure;altitude;pressure_sealevel;temperature;humidity
12722;BME280;6425;50.316;8.114;2022-10-30T00:04:26;99325.16;;;15.26;74.43
12722;BME280;6425;50.316;8.114;2022-10-30T00:09:29;99317.50;;;14.19;73.66
12722;BME280;6425;50.316;8.114;2022-10-30T00:14:30;99323.50;;;14.42;73.76
12722;BME280;6425;50.316;8.114;2022-10-30T00:19:30;99321.00;;;14.95;72.17
12722;BME280;6425;50.316;8.114;2022-10-30T00:24:32;99310.19;;;14.49;72.21
12722;BME280;6425;50.316;8.114;2022-10-30T00:29:33;99306.06;;;13.76;75.95
12722;BME280;6425;50.316;8.114;2022-10-30T00:34:33;99311.00;;;13.90;75.55
12722;BME280;6425;50.316;8.114;2022-10-30T00:39:35;99291.56;;;14.30;75.80
12722;BME280;6425;50.316;8.114;2022-10-30T00:44:39;99288.50;;;14.87;73.50
12722;BME280;6425;50.316;8.114;2022-10-30T00:49:49;99307.38;;;14.69;72.51
12722;BME280;6425;50.316;8.114;2022-10-30T00:54:52;99300.00;;;14.99;72.72
12722;BME280;6425;50.316;8.114;2022-10-30T00:59:53;99295.81;;;15.41;71.17
12722;BME280;6425;50.316;8.114;2022-10-30T01:04:54;99302.72;;;15.04;69.83
12722;BME280;6425;50.316;8.114;2022-10-30T01:09:56;99305.44;;;15.09;70.19
12722;BME280;6425;50.316;8.114;2022-10-30T01:14:58;99302.69;;;15.09;69.68
12722;BME280;6425;50.316;8.114;2022-10-30T01:20:10;99298.69;;;15.25;70.06
12722;BME280;6425;50.316;8.114;2022-10-30T01:25:26;99314.19;;;15.21;68.65
12722;BME280;6425;50.316;8.114;2022-10-30T01:30:43;99305.56;;;14.89;69.05
12722;BME280;6425;50.316;8.114;2022-10-30T01:35:51;99307.56;;;14.83;69.52
12722;BME280;6425;50.316;8.114;2022-10-30T01:40:58;99307.72;;;14.97;69.72
12722;BME280;6425;50.316;8.114;2022-10-30T01:46:11;99304.53;;;14.85;69.40
12722;BME280;6425;50.316;8.114;2022-10-30T01:51:19;99311.97;;;15.18;69.20
12722;BME280;6425;50.316;8.114;2022-10-30T01:56:31;99308.34;;;15.28;69.02
12722;BME280;6425;50.316;8.114;2022-10-30T02:01:36;99309.63;;;15.07;69.13
12722;BME280;6425;50.316;8.114;2022-10-30T02:06:38;99314.59;;;14.50;68.93
12722;BME280;6425;50.316;8.114;2022-10-30T02:11:42;99330.69;;;14.87;68.81
12722;BME280;6425;50.316;8.114;2022-10-30T02:16:48;99326.25;;;14.91;68.70
12722;BME280;6425;50.316;8.114;2022-10-30T02:21:53;99331.47;;;14.98;69.94
12722;BME280;6425;50.316;8.114;2022-10-30T02:26:53;99319.66;;;14.87;70.44
12722;BME280;6425;50.316;8.114;2022-10-30T02:31:54;99322.63;;;14.96;70.74
12722;BME280;6425;50.316;8.114;2022-10-30T02:36:56;99315.16;;;15.36;69.88
12722;BME280;6425;50.316;8.114;2022-10-30T02:41:57;99316.53;;;15.67;68.94
12722;BME280;6425;50.316;8.114;2022-10-30T02:46:57;99310.53;;;15.60;67.99
12722;BME280;6425;50.316;8.114;2022-10-30T02:51:59;99321.91;;;14.80;68.93
12722;BME280;6425;50.316;8.114;2022-10-30T02:56:59;99323.25;;;14.28;71.95
12722;BME280;6425;50.316;8.114;2022-10-30T03:02:00;99308.81;;;15.01;69.87
12722;BME280;6425;50.316;8.114;2022-10-30T03:07:02;99306.94;;;14.42;70.31
12722;BME280;6425;50.316;8.114;2022-10-30T03:12:03;99301.03;;;14.09;72.45
12722;BME280;6425;50.316;8.114;2022-10-30T03:17:03;99297.72;;;14.02;73.44
12722;BME280;6425;50.316;8.114;2022-10-30T03:22:05;99294.66;;;14.14;73.55
12722;BME280;6425;50.316;8.114;2022-10-30T03:27:06;99295.28;;;13.95;73.77
12722;BME280;6425;50.316;8.114;2022-10-30T03:32:08;99302.47;;;15.00;72.16
12722;BME280;6425;50.316;8.114;2022-10-30T03:37:16;99301.81;;;15.14;69.84
12722;BME280;6425;50.316;8.114;2022-10-30T03:42:18;99291.50;;;14.41;70.22
12722;BME280;6425;50.316;8.114;2022-10-30T03:47:19;99292.94;;;14.33;71.93
12722;BME280;6425;50.316;8.114;2022-10-30T03:52:21;99281.38;;;14.26;72.26
12722;BME280;6425;50.316;8.114;2022-10-30T03:57:23;99287.09;;;14.40;71.94
12722;BME280;6425;50.316;8.114;2022-10-30T04:02:39;99271.19;;;14.26;72.30
12722;BME280;6425;50.316;8.114;2022-10-30T04:07:45;99274.34;;;14.54;71.45
12722;BME280;6425;50.316;8.114;2022-10-30T04:12:47;99272.44;;;14.49;70.27
12722;BME280;6425;50.316;8.114;2022-10-30T04:17:48;99270.16;;;14.62;68.83
12722;BME280;6425;50.316;8.114;2022-10-30T07:26:42;99302.59;;;10.18;100.00
12722;BME280;6425;50.316;8.114;2022-10-30T07:32:04;99286.41;;;10.93;100.00
12722;BME280;6425;50.316;8.114;2022-10-30T07:37:21;99313.59;;;10.23;100.00
12722;BME280;6425;50.316;8.114;2022-10-30T07:42:46;99320.31;;;11.51;98.10
12722;BME280;6425;50.316;8.114;2022-10-30T07:48:03;99314.00;;;10.10;92.97
12722;BME280;6425;50.316;8.114;2022-10-30T07:53:14;99324.28;;;8.97;94.22
12722;BME280;6425;50.316;8.114;2022-10-30T07:58:19;99321.44;;;9.93;94.80
12722;BME280;6425;50.316;8.114;2022-10-30T08:03:37;99332.44;;;9.59;92.92
12722;BME280;6425;50.316;8.114;2022-10-30T08:08:50;99340.09;;;10.89;92.82
12722;BME280;6425;50.316;8.114;2022-10-30T08:14:27;99332.34;;;11.45;86.33
12722;BME280;6425;50.316;8.114;2022-10-30T08:19:33;99331.13;;;13.14;83.75
12722;BME280;6425;50.316;8.114;2022-10-30T08:24:33;99323.63;;;14.11;81.04
12722;BME280;6425;50.316;8.114;2022-10-30T08:29:55;99332.72;;;14.71;78.02
12722;BME280;6425;50.316;8.114;2022-10-30T08:34:59;99330.88;;;15.01;75.43
12722;BME280;6425;50.316;8.114;2022-10-30T08:40:05;99329.41;;;14.04;76.31
12722;BME280;6425;50.316;8.114;2022-10-30T08:45:31;99329.91;;;12.43;81.89
12722;BME280;6425;50.316;8.114;2022-10-30T08:50:42;99315.72;;;13.69;79.66
12722;BME280;6425;50.316;8.114;2022-10-30T08:55:44;99315.47;;;13.14;80.47
12722;BME280;6425;50.316;8.114;2022-10-30T09:01:06;99315.44;;;12.94;83.85
12722;BME280;6425;50.316;8.114;2022-10-30T09:06:26;99310.91;;;14.20;79.70
12722;BME280;6425;50.316;8.114;2022-10-30T09:11:46;99310.69;;;14.66;77.83
12722;BME280;6425;50.316;8.114;2022-10-30T09:16:50;99321.50;;;13.62;78.30
12722;BME280;6425;50.316;8.114;2022-10-30T09:21:53;99316.22;;;12.01;87.02
12722;BME280;6425;50.316;8.114;2022-10-30T09:26:55;99317.63;;;11.19;90.71
12722;BME280;6425;50.316;8.114;2022-10-30T09:32:02;99340.09;;;11.53;93.22
12722;BME280;6425;50.316;8.114;2022-10-30T09:37:04;99322.44;;;12.34;90.94
12722;BME280;6425;50.316;8.114;2022-10-30T09:42:21;99327.84;;;11.66;91.39
12722;BME280;6425;50.316;8.114;2022-10-30T09:47:39;99335.78;;;11.67;93.46
12722;BME280;6425;50.316;8.114;2022-10-30T09:52:55;99318.19;;;12.11;91.11
12722;BME280;6425;50.316;8.114;2022-10-30T09:58:05;99325.56;;;12.63;89.18
12722;BME280;6425;50.316;8.114;2022-10-30T10:03:32;99317.09;;;12.12;90.51
12722;BME280;6425;50.316;8.114;2022-10-30T10:08:58;99325.59;;;12.05;91.55
12722;BME280;6425;50.316;8.114;2022-10-30T10:14:21;99332.78;;;11.69;93.35
12722;BME280;6425;50.316;8.114;2022-10-30T10:19:34;99315.28;;;12.27;93.94
12722;BME280;6425;50.316;8.114;2022-10-30T10:24:41;99323.34;;;11.97;92.88
12722;BME280;6425;50.316;8.114;2022-10-30T10:29:52;99315.28;;;12.33;91.04
12722;BME280;6425;50.316;8.114;2022-10-30T10:40:47;99298.34;;;12.56;91.03
12722;BME280;6425;50.316;8.114;2022-10-30T10:45:56;99296.34;;;12.31;92.62
12722;BME280;6425;50.316;8.114;2022-10-30T10:51:03;99298.97;;;12.99;91.84
12722;BME280;6425;50.316;8.114;2022-10-30T10:56:06;99295.53;;;13.94;89.72
12722;BME280;6425;50.316;8.114;2022-10-30T11:01:12;99280.03;;;15.99;83.55
12722;BME280;6425;50.316;8.114;2022-10-30T11:06:23;99267.34;;;16.60;78.86
12722;BME280;6425;50.316;8.114;2022-10-30T11:11:26;99271.97;;;16.03;79.10
12722;BME280;6425;50.316;8.114;2022-10-30T11:16:30;99267.72;;;16.72;77.73
12722;BME280;6425;50.316;8.114;2022-10-30T11:21:38;99260.50;;;16.15;80.26
12722;BME280;6425;50.316;8.114;2022-10-30T11:26:41;99273.91;;;17.67;76.03
12722;BME280;6425;50.316;8.114;2022-10-30T11:31:43;99273.66;;;15.17;84.79
12722;BME280;6425;50.316;8.114;2022-10-30T11:36:46;99260.44;;;16.39;84.04
12722;BME280;6425;50.316;8.114;2022-10-30T11:41:54;99253.06;;;17.10;80.69
12722;BME280;6425;50.316;8.114;2022-10-30T11:46:55;99245.81;;;16.57;81.01
12722;BME280;6425;50.316;8.114;2022-10-30T11:51:58;99258.34;;;17.39;77.84
12722;BME280;6425;50.316;8.114;2022-10-30T11:56:59;99251.97;;;17.24;78.60
12722;BME280;6425;50.316;8.114;2022-10-30T12:02:01;99243.66;;;17.24;80.10
12722;BME280;6425;50.316;8.114;2022-10-30T12:12:38;99234.03;;;18.73;74.36
12722;BME280;6425;50.316;8.114;2022-10-30T12:17:50;99227.94;;;20.18;68.40
12722;BME280;6425;50.316;8.114;2022-10-30T12:22:57;99228.44;;;20.12;67.68
12722;BME280;6425;50.316;8.114;2022-10-30T12:28:03;99238.44;;;20.21;68.78
12722;BME280;6425;50.316;8.114;2022-10-30T12:33:11;99216.25;;;20.91;64.98
12722;BME280;6425;50.316;8.114;2022-10-30T12:38:19;99223.81;;;20.82;64.79
12722;BME280;6425;50.316;8.114;2022-10-30T12:43:34;99214.00;;;21.57;62.96
12722;BME280;6425;50.316;8.114;2022-10-30T12:48:46;99200.44;;;22.23;56.53
12722;BME280;6425;50.316;8.114;2022-10-30T12:53:52;99210.88;;;21.67;58.90
12722;BME280;6425;50.316;8.114;2022-10-30T12:59:19;99211.56;;;20.08;70.02
12722;BME280;6425;50.316;8.114;2022-10-30T13:04:40;99201.03;;;19.88;70.42
12722;BME280;6425;50.316;8.114;2022-10-30T13:09:55;99182.88;;;19.19;71.57
12722;BME280;6425;50.316;8.114;2022-10-30T13:15:08;99194.41;;;19.04;72.70
12722;BME280;6425;50.316;8.114;2022-10-30T13:20:33;99185.50;;;18.71;73.64
12722;BME280;6425;50.316;8.114;2022-10-30T13:25:48;99197.34;;;19.30;73.18
12722;BME280;6425;50.316;8.114;2022-10-30T13:30:59;99191.38;;;18.69;73.90
12722;BME280;6425;50.316;8.114;2022-10-30T13:36:10;99187.84;;;19.00;71.62
12722;BME280;6425;50.316;8.114;2022-10-30T13:41:22;99198.38;;;19.43;70.18
12722;BME280;6425;50.316;8.114;2022-10-30T13:46:45;99178.22;;;21.21;62.47
12722;BME280;6425;50.316;8.114;2022-10-30T13:51:56;99196.81;;;18.97;70.06
12722;BME280;6425;50.316;8.114;2022-10-30T13:57:11;99201.16;;;18.67;72.39
12722;BME280;6425;50.316;8.114;2022-10-30T14:02:40;99206.75;;;20.48;62.33
12722;BME280;6425;50.316;8.114;2022-10-30T14:08:05;99199.84;;;19.71;64.90
12722;BME280;6425;50.316;8.114;2022-10-30T14:13:52;99206.06;;;18.70;68.88
12722;BME280;6425;50.316;8.114;2022-10-30T14:19:42;99203.50;;;19.98;65.48
12722;BME280;6425;50.316;8.114;2022-10-30T14:24:55;99200.19;;;21.69;59.75
12722;BME280;6425;50.316;8.114;2022-10-30T14:30:16;99199.75;;;21.97;58.51
12722;BME280;6425;50.316;8.114;2022-10-30T14:35:32;99203.78;;;21.70;58.62
12722;BME280;6425;50.316;8.114;2022-10-30T14:40:46;99195.63;;;20.92;55.80
12722;BME280;6425;50.316;8.114;2022-10-30T14:45:58;99203.31;;;21.12;51.67
12722;BME280;6425;50.316;8.114;2022-10-30T14:51:17;99211.50;;;20.74;49.92
12722;BME280;6425;50.316;8.114;2022-10-30T14:56:40;99207.09;;;20.56;49.68
12722;BME280;6425;50.316;8.114;2022-10-30T15:01:46;99211.19;;;20.67;50.26
12722;BME280;6425;50.316;8.114;2022-10-30T15:07:18;99210.06;;;20.76;50.02
12722;BME280;6425;50.316;8.114;2022-10-30T15:12:30;99215.63;;;20.02;51.57
12722;BME280;6425;50.316;8.114;2022-10-30T15:17:43;99206.81;;;20.00;51.16
12722;BME280;6425;50.316;8.114;2022-10-30T15:22:51;99220.66;;;19.83;52.01
12722;BME280;6425;50.316;8.114;2022-10-30T15:27:54;99216.13;;;19.56;52.60
12722;BME280;6425;50.316;8.114;2022-10-30T15:32:55;99212.34;;;19.91;51.90
12722;BME280;6425;50.316;8.114;2022-10-30T15:38:01;99207.22;;;19.45;53.07
12722;BME280;6425;50.316;8.114;2022-10-30T15:43:04;99225.47;;;19.37;53.07
12722;BME280;6425;50.316;8.114;2022-10-30T15:48:10;99222.50;;;19.56;52.74
12722;BME280;6425;50.316;8.114;2022-10-30T15:53:19;99238.75;;;19.71;53.01
12722;BME280;6425;50.316;8.114;2022-10-30T15:58:27;99230.84;;;19.96;52.25
12722;BME280;6425;50.316;8.114;2022-10-30T16:03:57;99235.88;;;19.94;52.29
12722;BME280;6425;50.316;8.114;2022-10-30T16:15:01;99240.00;;;20.62;51.23
12722;BME280;6425;50.316;8.114;2022-10-30T16:20:26;99264.13;;;19.78;53.37
12722;BME280;6425;50.316;8.114;2022-10-30T16:25:30;99266.38;;;20.08;52.60
12722;BME280;6425;50.316;8.114;2022-10-30T16:30:33;99267.72;;;19.03;55.48
12722;BME280;6425;50.316;8.114;2022-10-30T16:35:34;99271.22;;;18.72;56.78
12722;BME280;6425;50.316;8.114;2022-10-30T16:40:34;99263.84;;;18.54;56.98
12722;BME280;6425;50.316;8.114;2022-10-30T16:45:47;99267.75;;;18.53;56.35
12722;BME280;6425;50.316;8.114;2022-10-30T16:50:48;99263.47;;;18.19;57.68
12722;BME280;6425;50.316;8.114;2022-10-30T16:55:49;99265.75;;;17.76;58.54
12722;BME280;6425;50.316;8.114;2022-10-30T17:00:52;99262.00;;;17.53;58.29
12722;BME280;6425;50.316;8.114;2022-10-30T17:06:00;99268.00;;;17.88;57.54
12722;BME280;6425;50.316;8.114;2022-10-30T17:11:02;99269.44;;;17.99;56.83
12722;BME280;6425;50.316;8.114;2022-10-30T17:16:23;99276.59;;;18.41;54.88
12722;BME280;6425;50.316;8.114;2022-10-30T17:21:26;99295.47;;;16.00;64.71
12722;BME280;6425;50.316;8.114;2022-10-30T17:26:28;99320.03;;;16.26;64.05
12722;BME280;6425;50.316;8.114;2022-10-30T17:31:41;99324.38;;;17.64;60.13
12722;BME280;6425;50.316;8.114;2022-10-30T17:36:42;99321.81;;;17.68;59.54
12722;BME280;6425;50.316;8.114;2022-10-30T17:41:43;99332.84;;;17.87;58.23
12722;BME280;6425;50.316;8.114;2022-10-30T17:46:45;99346.19;;;17.19;60.00
12722;BME280;6425;50.316;8.114;2022-10-30T17:51:45;99349.91;;;17.28;60.71
12722;BME280;6425;50.316;8.114;2022-10-30T17:56:46;99349.34;;;16.75;61.88
12722;BME280;6425;50.316;8.114;2022-10-30T18:01:48;99348.81;;;17.62;59.14
12722;BME280;6425;50.316;8.114;2022-10-30T18:06:48;99357.34;;;17.47;59.29
12722;BME280;6425;50.316;8.114;2022-10-30T18:11:49;99366.97;;;17.17;59.85
12722;BME280;6425;50.316;8.114;2022-10-30T18:16:53;99380.31;;;17.15;60.28
12722;BME280;6425;50.316;8.114;2022-10-30T18:21:54;99376.22;;;16.21;62.19
12722;BME280;6425;50.316;8.114;2022-10-30T18:26:56;99379.34;;;15.17;66.24
12722;BME280;6425;50.316;8.114;2022-10-30T18:31:57;99386.16;;;14.86;67.77
12722;BME280;6425;50.316;8.114;2022-10-30T18:36:58;99392.78;;;15.29;66.18
12722;BME280;6425;50.316;8.114;2022-10-30T18:41:58;99388.03;;;15.74;64.70
12722;BME280;6425;50.316;8.114;2022-10-30T18:47:00;99385.75;;;15.81;64.02
12722;BME280;6425;50.316;8.114;2022-10-30T18:52:01;99384.97;;;16.04;62.99
12722;BME280;6425;50.316;8.114;2022-10-30T18:57:01;99403.03;;;16.21;62.21
12722;BME280;6425;50.316;8.114;2022-10-30T19:02:13;99404.03;;;16.06;62.15
12722;BME280;6425;50.316;8.114;2022-10-30T19:07:19;99410.88;;;16.38;61.31
12722;BME280;6425;50.316;8.114;2022-10-30T19:12:19;99406.44;;;15.44;63.66
12722;BME280;6425;50.316;8.114;2022-10-30T19:17:21;99406.81;;;14.93;65.69
12722;BME280;6425;50.316;8.114;2022-10-30T19:22:21;99411.13;;;15.83;62.67
12722;BME280;6425;50.316;8.114;2022-10-30T19:27:22;99417.81;;;14.98;64.32
12722;BME280;6425;50.316;8.114;2022-10-30T19:32:24;99426.34;;;15.02;64.19
12722;BME280;6425;50.316;8.114;2022-10-30T19:37:24;99423.72;;;14.71;65.09
12722;BME280;6425;50.316;8.114;2022-10-30T19:42:25;99425.13;;;14.64;65.95
12722;BME280;6425;50.316;8.114;2022-10-30T19:47:26;99415.44;;;14.71;65.00
12722;BME280;6425;50.316;8.114;2022-10-30T19:52:27;99413.56;;;14.56;65.23
12722;BME280;6425;50.316;8.114;2022-10-30T19:57:27;99421.56;;;14.48;65.25
12722;BME280;6425;50.316;8.114;2022-10-30T20:02:30;99412.88;;;13.39;68.10
12722;BME280;6425;50.316;8.114;2022-10-30T20:07:30;99415.09;;;14.03;66.80
12722;BME280;6425;50.316;8.114;2022-10-30T20:12:30;99415.59;;;14.10;66.16
12722;BME280;6425;50.316;8.114;2022-10-30T20:17:32;99419.22;;;13.85;67.86
12722;BME280;6425;50.316;8.114;2022-10-30T20:22:33;99421.66;;;13.46;69.42
12722;BME280;6425;50.316;8.114;2022-10-30T20:27:33;99425.00;;;13.89;69.64
12722;BME280;6425;50.316;8.114;2022-10-30T20:32:35;99422.25;;;14.04;67.44
12722;BME280;6425;50.316;8.114;2022-10-30T20:37:36;99429.81;;;14.53;66.33
12722;BME280;6425;50.316;8.114;2022-10-30T20:42:36;99431.63;;;14.03;67.22
12722;BME280;6425;50.316;8.114;2022-10-30T20:47:38;99419.94;;;14.37;65.48
12722;BME280;6425;50.316;8.114;2022-10-30T20:52:39;99419.50;;;13.84;66.46
12722;BME280;6425;50.316;8.114;2022-10-30T20:57:40;99444.19;;;14.45;67.37
12722;BME280;6425;50.316;8.114;2022-10-30T21:02:42;99436.56;;;13.75;67.09
12722;BME280;6425;50.316;8.114;2022-10-30T21:07:43;99447.03;;;13.89;66.86
12722;BME280;6425;50.316;8.114;2022-10-30T21:12:43;99436.88;;;13.74;66.77
12722;BME280;6425;50.316;8.114;2022-10-30T21:17:46;99456.47;;;12.89;68.15
12722;BME280;6425;50.316;8.114;2022-10-30T21:22:47;99459.66;;;13.34;68.04
12722;BME280;6425;50.316;8.114;2022-10-30T21:27:47;99466.06;;;12.81;68.96
12722;BME280;6425;50.316;8.114;2022-10-30T21:32:49;99452.41;;;13.07;68.55
12722;BME280;6425;50.316;8.114;2022-10-30T21:37:50;99453.81;;;13.15;68.72
12722;BME280;6425;50.316;8.114;2022-10-30T21:42:50;99469.19;;;13.05;68.06
12722;BME280;6425;50.316;8.114;2022-10-30T21:47:52;99451.88;;;13.20;68.19
12722;BME280;6425;50.316;8.114;2022-10-30T21:52:53;99461.53;;;13.23;67.35
12722;BME280;6425;50.316;8.114;2022-10-30T21:57:53;99449.66;;;13.02;68.06
12722;BME280;6425;50.316;8.114;2022-10-30T22:02:56;99460.06;;;12.90;68.82
12722;BME280;6425;50.316;8.114;2022-10-30T22:07:56;99452.75;;;13.21;68.79
12722;BME280;6425;50.316;8.114;2022-10-30T22:12:57;99467.09;;;13.43;68.28
12722;BME280;6425;50.316;8.114;2022-10-30T22:17:59;99465.16;;;12.18;72.08
12722;BME280;6425;50.316;8.114;2022-10-30T22:22:59;99470.22;;;12.84;69.54
12722;BME280;6425;50.316;8.114;2022-10-30T22:27:59;99467.78;;;13.03;68.50
12722;BME280;6425;50.316;8.114;2022-10-30T22:33:01;99472.31;;;12.62;69.85
12722;BME280;6425;50.316;8.114;2022-10-30T22:38:02;99463.75;;;13.21;68.18
12722;BME280;6425;50.316;8.114;2022-10-30T22:43:03;99474.19;;;13.29;68.58
12722;BME280;6425;50.316;8.114;2022-10-30T22:48:05;99461.53;;;13.23;66.91
12722;BME280;6425;50.316;8.114;2022-10-30T22:53:06;99449.31;;;12.78;67.71
12722;BME280;6425;50.316;8.114;2022-10-30T22:58:06;99455.22;;;13.32;67.34
12722;BME280;6425;50.316;8.114;2022-10-30T23:03:08;99475.88;;;12.57;69.07
12722;BME280;6425;50.316;8.114;2022-10-30T23:08:08;99481.78;;;12.91;68.36
12722;BME280;6425;50.316;8.114;2022-10-30T23:13:09;99484.28;;;13.03;67.77
12722;BME280;6425;50.316;8.114;2022-10-30T23:18:11;99470.38;;;12.57;67.93
12722;BME280;6425;50.316;8.114;2022-10-30T23:23:11;99485.69;;;12.43;68.72
12722;BME280;6425;50.316;8.114;2022-10-30T23:28:12;99481.41;;;12.67;68.09
12722;BME280;6425;50.316;8.114;2022-10-30T23:33:14;99481.19;;;12.26;69.78
12722;BME280;6425;50.316;8.114;2022-10-30T23:38:14;99495.75;;;12.79;69.25
12722;BME280;6425;50.316;8.114;2022-10-30T23:43:15;99502.47;;;12.99;68.51
12722;BME280;6425;50.316;8.114;2022-10-30T23:48:17;99505.16;;;12.89;67.42
12722;BME280;6425;50.316;8.114;2022-10-30T23:53:18;99508.22;;;12.97;67.70
12722;BME280;6425;50.316;8.114;2022-10-30T23:58:19;99497.88;;;13.30;66.81
